Accueil
METAR-TAF:

METAR-TAF

Aéroports :

Iakoutsk, Russie

Aéroport d'Iakoutsk

latitude: 62-01N, longitude: 129-43E, altitude: 103 m

Observation

Le bulletin a été fait il y a 43 minutes, à 15:30 UTC
Vent 4 kt de nord
Température -36°C
Humidité 66%
Pression 1031 hPa
Visibilité 10 km ou plus
pas de nuages en-dessous de 1500 mètres et pas de cumulonimbus.

METAR: UEEE 241530Z 01002MPS CAVOK M36/M40 Q1031 R23L/490150 NOSIG RMK QFE765

Heure: 01:13 (16:13 UTC)

Prévision

Le bulletin a été fait il y a 2 heures et 13 minutes, à 14:00 UTC
Prévision valable du 24 à 15 UTC au 25 à 21 UTC
Vent 2 kt de direction variable
Visibilité: 5000 m
brume
Temporairement
du 24 à 15 UTC au 25 à 01 UTC
Visibilité: 0300 m
à une hauteur de 300 ft
brouillard

TAF: UEEE 241400Z 2415/2521 VRB01MPS 5000 BR NSC TEMPO 2415/2501 0300 FG VV003

Observations et prévisions météorologiques de plus de 4000 aéroports (messages METAR et TAF).

Les stations disponibles sont représentées par des disques jaunes et rouges sur la carte.

Passer la souris dessus pour voir le nom de la station.

Cliquer dessus pour voir les observations et prévisions météorologiques.

Pour changer de carte: cliquez sur les boutons verts avec une croix noire pour zoomer, sur le bouton vert avec un tiret pour effectuer un zoom arrière, ou sur les flèches vertes pour les cartes adjacentes.


METAR-TAF: